sensor_id;sensor_type;location;lat;lon;timestamp;pressure;altitude;pressure_sealevel;temperature;humidity
21879;BME280;27908;42.708;23.278;2023-02-04T00:00:19;62657.81;;;1.16;100.00
21879;BME280;27908;42.708;23.278;2023-02-04T00:02:45;62653.19;;;1.09;100.00
21879;BME280;27908;42.708;23.278;2023-02-04T00:05:11;62626.63;;;1.10;100.00
21879;BME280;27908;42.708;23.278;2023-02-04T00:07:37;62657.75;;;1.13;100.00
21879;BME280;27908;42.708;23.278;2023-02-04T00:10:04;62650.97;;;0.97;100.00
21879;BME280;27908;42.708;23.278;2023-02-04T00:12:30;62662.66;;;1.06;100.00
21879;BME280;27908;42.708;23.278;2023-02-04T00:14:55;62665.25;;;1.11;100.00
21879;BME280;27908;42.708;23.278;2023-02-04T00:17:21;62650.94;;;0.95;100.00
21879;BME280;27908;42.708;23.278;2023-02-04T00:19:46;62634.53;;;1.03;100.00
21879;BME280;27908;42.708;23.278;2023-02-04T00:22:12;62718.22;;;0.99;100.00
21879;BME280;27908;42.708;23.278;2023-02-04T00:24:37;62651.44;;;0.95;100.00
21879;BME280;27908;42.708;23.278;2023-02-04T00:27:04;62724.22;;;0.98;100.00
21879;BME280;27908;42.708;23.278;2023-02-04T00:29:29;62676.09;;;1.00;100.00
21879;BME280;27908;42.708;23.278;2023-02-04T00:31:55;62674.75;;;1.08;100.00
21879;BME280;27908;42.708;23.278;2023-02-04T00:34:21;62681.28;;;1.09;100.00
21879;BME280;27908;42.708;23.278;2023-02-04T00:36:46;62696.41;;;1.46;100.00
21879;BME280;27908;42.708;23.278;2023-02-04T00:39:11;62681.25;;;1.39;100.00
21879;BME280;27908;42.708;23.278;2023-02-04T00:41:37;62713.03;;;1.50;100.00
21879;BME280;27908;42.708;23.278;2023-02-04T00:44:02;62750.41;;;1.64;100.00
21879;BME280;27908;42.708;23.278;2023-02-04T00:46:28;62727.63;;;1.52;100.00
21879;BME280;27908;42.708;23.278;2023-02-04T00:48:53;62745.50;;;1.69;100.00
21879;BME280;27908;42.708;23.278;2023-02-04T00:51:19;62711.78;;;1.66;100.00
21879;BME280;27908;42.708;23.278;2023-02-04T00:53:44;62714.16;;;1.56;100.00
21879;BME280;27908;42.708;23.278;2023-02-04T00:56:10;62695.81;;;1.38;100.00
21879;BME280;27908;42.708;23.278;2023-02-04T00:58:36;62797.50;;;1.56;100.00
21879;BME280;27908;42.708;23.278;2023-02-04T01:01:01;62708.31;;;1.67;100.00
21879;BME280;27908;42.708;23.278;2023-02-04T01:03:27;62765.75;;;1.79;100.00
21879;BME280;27908;42.708;23.278;2023-02-04T01:05:52;62774.91;;;1.88;100.00
21879;BME280;27908;42.708;23.278;2023-02-04T01:08:17;62775.41;;;2.17;100.00
21879;BME280;27908;42.708;23.278;2023-02-04T01:10:43;62788.72;;;2.35;100.00
21879;BME280;27908;42.708;23.278;2023-02-04T01:13:09;62816.19;;;2.54;100.00
21879;BME280;27908;42.708;23.278;2023-02-04T01:15:34;62836.34;;;2.57;100.00
21879;BME280;27908;42.708;23.278;2023-02-04T01:18:00;62826.78;;;2.57;100.00
21879;BME280;27908;42.708;23.278;2023-02-04T01:20:25;62786.81;;;2.41;100.00
21879;BME280;27908;42.708;23.278;2023-02-04T01:22:51;62771.31;;;2.13;100.00
21879;BME280;27908;42.708;23.278;2023-02-04T01:25:16;62800.44;;;2.44;100.00
21879;BME280;27908;42.708;23.278;2023-02-04T01:27:43;62810.66;;;2.54;100.00
21879;BME280;27908;42.708;23.278;2023-02-04T01:30:09;62884.97;;;2.80;98.45
21879;BME280;27908;42.708;23.278;2023-02-04T01:32:35;62903.03;;;3.07;93.62
21879;BME280;27908;42.708;23.278;2023-02-04T01:35:00;62910.63;;;3.43;90.59
21879;BME280;27908;42.708;23.278;2023-02-04T01:37:26;62935.50;;;3.57;90.98
21879;BME280;27908;42.708;23.278;2023-02-04T01:39:51;62956.84;;;3.71;88.94
21879;BME280;27908;42.708;23.278;2023-02-04T01:42:17;62959.97;;;3.76;87.75
21879;BME280;27908;42.708;23.278;2023-02-04T01:44:42;62954.41;;;3.73;87.22
21879;BME280;27908;42.708;23.278;2023-02-04T01:47:08;62968.28;;;3.91;87.08
21879;BME280;27908;42.708;23.278;2023-02-04T01:49:34;62975.41;;;3.98;86.50
21879;BME280;27908;42.708;23.278;2023-02-04T01:52:01;62964.88;;;4.00;86.97
21879;BME280;27908;42.708;23.278;2023-02-04T01:54:26;62991.53;;;3.97;86.51
21879;BME280;27908;42.708;23.278;2023-02-04T01:56:52;62980.31;;;3.88;85.89
21879;BME280;27908;42.708;23.278;2023-02-04T01:59:19;63001.06;;;3.94;86.17
21879;BME280;27908;42.708;23.278;2023-02-04T02:01:47;62979.47;;;4.00;86.56
21879;BME280;27908;42.708;23.278;2023-02-04T02:04:16;63007.25;;;4.05;86.50
21879;BME280;27908;42.708;23.278;2023-02-04T02:06:47;62977.50;;;4.03;87.67
21879;BME280;27908;42.708;23.278;2023-02-04T02:09:13;62961.91;;;4.05;86.89
21879;BME280;27908;42.708;23.278;2023-02-04T02:11:38;62949.41;;;3.78;94.47
21879;BME280;27908;42.708;23.278;2023-02-04T02:14:04;62893.63;;;3.51;96.72
21879;BME280;27908;42.708;23.278;2023-02-04T02:16:30;62940.03;;;3.57;98.95
21879;BME280;27908;42.708;23.278;2023-02-04T02:18:55;62920.69;;;3.43;99.81
21879;BME280;27908;42.708;23.278;2023-02-04T02:21:57;62891.94;;;3.40;100.00
21879;BME280;27908;42.708;23.278;2023-02-04T02:24:31;62858.56;;;2.95;100.00
21879;BME280;27908;42.708;23.278;2023-02-04T02:27:04;62863.00;;;2.90;100.00
21879;BME280;27908;42.708;23.278;2023-02-04T02:29:31;62858.47;;;2.88;100.00
21879;BME280;27908;42.708;23.278;2023-02-04T02:31:57;62854.44;;;2.89;100.00
21879;BME280;27908;42.708;23.278;2023-02-04T02:34:24;62854.38;;;2.84;100.00
21879;BME280;27908;42.708;23.278;2023-02-04T02:36:50;62816.94;;;2.70;100.00
21879;BME280;27908;42.708;23.278;2023-02-04T02:39:16;62834.22;;;2.50;100.00
21879;BME280;27908;42.708;23.278;2023-02-04T02:41:42;62836.34;;;2.57;100.00
21879;BME280;27908;42.708;23.278;2023-02-04T02:44:10;62829.28;;;2.57;100.00
21879;BME280;27908;42.708;23.278;2023-02-04T02:46:36;62823.38;;;2.64;100.00
21879;BME280;27908;42.708;23.278;2023-02-04T02:49:02;62857.03;;;2.62;100.00
21879;BME280;27908;42.708;23.278;2023-02-04T02:51:27;62856.00;;;2.93;99.47
21879;BME280;27908;42.708;23.278;2023-02-04T02:53:53;62858.19;;;3.05;99.33
21879;BME280;27908;42.708;23.278;2023-02-04T02:56:18;62865.84;;;3.12;100.00
21879;BME280;27908;42.708;23.278;2023-02-04T02:58:44;63020.94;;;3.16;98.05
21879;BME280;27908;42.708;23.278;2023-02-04T03:01:10;62893.09;;;3.17;100.00
21879;BME280;27908;42.708;23.278;2023-02-04T03:03:44;62832.16;;;2.80;100.00
21879;BME280;27908;42.708;23.278;2023-02-04T03:06:15;62872.56;;;3.23;95.76
21879;BME280;27908;42.708;23.278;2023-02-04T03:08:42;62927.81;;;3.48;94.11
21879;BME280;27908;42.708;23.278;2023-02-04T03:11:09;62919.59;;;3.37;95.50
21879;BME280;27908;42.708;23.278;2023-02-04T03:13:35;62928.94;;;3.56;96.69
21879;BME280;27908;42.708;23.278;2023-02-04T03:16:02;62916.16;;;3.44;98.32
21879;BME280;27908;42.708;23.278;2023-02-04T03:18:28;62833.53;;;3.05;98.76
21879;BME280;27908;42.708;23.278;2023-02-04T03:20:55;62958.22;;;3.60;93.00
21879;BME280;27908;42.708;23.278;2023-02-04T03:23:23;62955.44;;;3.77;92.73
21879;BME280;27908;42.708;23.278;2023-02-04T03:25:48;63039.03;;;3.75;96.27
21879;BME280;27908;42.708;23.278;2023-02-04T03:28:14;62934.41;;;3.52;96.91
21879;BME280;27908;42.708;23.278;2023-02-04T03:30:39;62930.50;;;3.60;96.41
21879;BME280;27908;42.708;23.278;2023-02-04T03:33:05;62918.97;;;3.29;98.54
21879;BME280;27908;42.708;23.278;2023-02-04T03:35:30;62933.19;;;3.38;99.40
21879;BME280;27908;42.708;23.278;2023-02-04T03:37:55;62904.22;;;3.20;100.00
21879;BME280;27908;42.708;23.278;2023-02-04T03:40:21;62823.94;;;3.01;100.00
21879;BME280;27908;42.708;23.278;2023-02-04T03:42:46;62830.44;;;3.00;100.00
21879;BME280;27908;42.708;23.278;2023-02-04T03:45:12;62876.84;;;3.08;100.00
21879;BME280;27908;42.708;23.278;2023-02-04T03:47:37;62868.34;;;3.10;100.00
21879;BME280;27908;42.708;23.278;2023-02-04T03:50:03;62862.63;;;2.99;100.00
21879;BME280;27908;42.708;23.278;2023-02-04T03:52:29;62873.50;;;2.85;100.00
21879;BME280;27908;42.708;23.278;2023-02-04T03:54:54;62871.69;;;2.98;100.00
21879;BME280;27908;42.708;23.278;2023-02-04T03:57:20;62872.03;;;2.89;100.00
21879;BME280;27908;42.708;23.278;2023-02-04T03:59:45;62985.09;;;2.82;100.00
21879;BME280;27908;42.708;23.278;2023-02-04T04:02:11;62834.25;;;2.84;100.00
21879;BME280;27908;42.708;23.278;2023-02-04T04:04:36;62820.53;;;2.76;100.00
21879;BME280;27908;42.708;23.278;2023-02-04T04:07:02;62881.03;;;2.85;100.00
21879;BME280;27908;42.708;23.278;2023-02-04T04:09:27;62846.44;;;2.93;100.00
21879;BME280;27908;42.708;23.278;2023-02-04T04:11:53;62820.81;;;2.61;100.00
21879;BME280;27908;42.708;23.278;2023-02-04T04:14:19;62817.75;;;2.58;100.00
21879;BME280;27908;42.708;23.278;2023-02-04T04:16:44;62822.31;;;2.60;100.00
21879;BME280;27908;42.708;23.278;2023-02-04T04:19:10;62829.91;;;2.65;100.00
21879;BME280;27908;42.708;23.278;2023-02-04T04:21:35;62814.28;;;2.62;100.00
21879;BME280;27908;42.708;23.278;2023-02-04T04:24:01;62810.25;;;2.61;100.00
21879;BME280;27908;42.708;23.278;2023-02-04T04:26:26;62981.69;;;2.59;100.00
21879;BME280;27908;42.708;23.278;2023-02-04T04:28:51;62800.00;;;2.48;100.00
21879;BME280;27908;42.708;23.278;2023-02-04T04:31:17;62763.03;;;2.30;100.00
21879;BME280;27908;42.708;23.278;2023-02-04T04:33:42;62807.75;;;2.29;100.00
21879;BME280;27908;42.708;23.278;2023-02-04T04:36:08;62781.81;;;2.09;100.00
21879;BME280;27908;42.708;23.278;2023-02-04T04:38:33;62793.25;;;2.35;100.00
21879;BME280;27908;42.708;23.278;2023-02-04T04:40:59;62811.88;;;2.36;100.00
21879;BME280;27908;42.708;23.278;2023-02-04T04:43:24;62785.72;;;2.35;100.00
21879;BME280;27908;42.708;23.278;2023-02-04T04:45:50;62793.22;;;2.32;100.00
21879;BME280;27908;42.708;23.278;2023-02-04T04:48:15;62832.28;;;2.55;100.00
21879;BME280;27908;42.708;23.278;2023-02-04T04:50:41;62845.13;;;2.73;100.00
21879;BME280;27908;42.708;23.278;2023-02-04T04:53:06;62902.03;;;3.42;100.00
21879;BME280;27908;42.708;23.278;2023-02-04T04:55:36;62957.63;;;3.54;100.00
21879;BME280;27908;42.708;23.278;2023-02-04T04:58:02;62955.41;;;3.74;100.00
21879;BME280;27908;42.708;23.278;2023-02-04T05:00:28;62953.50;;;3.82;100.00
21879;BME280;27908;42.708;23.278;2023-02-04T05:02:53;62918.59;;;3.73;100.00
21879;BME280;27908;42.708;23.278;2023-02-04T05:05:19;62937.66;;;3.67;100.00
21879;BME280;27908;42.708;23.278;2023-02-04T05:07:45;62969.31;;;3.61;100.00
21879;BME280;27908;42.708;23.278;2023-02-04T05:10:10;62936.44;;;3.51;100.00
21879;BME280;27908;42.708;23.278;2023-02-04T05:12:35;62931.69;;;3.37;100.00
21879;BME280;27908;42.708;23.278;2023-02-04T05:15:01;62914.47;;;3.32;100.00
21879;BME280;27908;42.708;23.278;2023-02-04T05:17:26;62909.03;;;3.37;100.00
21879;BME280;27908;42.708;23.278;2023-02-04T05:19:52;62937.09;;;3.30;100.00
21879;BME280;27908;42.708;23.278;2023-02-04T05:22:17;62970.19;;;3.20;100.00
21879;BME280;27908;42.708;23.278;2023-02-04T05:24:42;62941.31;;;3.10;100.00
21879;BME280;27908;42.708;23.278;2023-02-04T05:27:08;62900.06;;;3.11;100.00
21879;BME280;27908;42.708;23.278;2023-02-04T05:29:33;62880.81;;;3.02;100.00
21879;BME280;27908;42.708;23.278;2023-02-04T05:31:59;62865.72;;;3.02;100.00
21879;BME280;27908;42.708;23.278;2023-02-04T05:34:24;62884.50;;;3.13;100.00
21879;BME280;27908;42.708;23.278;2023-02-04T05:36:49;62872.34;;;3.09;100.00
21879;BME280;27908;42.708;23.278;2023-02-04T05:39:15;62888.53;;;3.15;100.00
21879;BME280;27908;42.708;23.278;2023-02-04T05:41:40;62867.94;;;3.17;100.00
21879;BME280;27908;42.708;23.278;2023-02-04T05:44:05;62858.41;;;3.19;100.00
21879;BME280;27908;42.708;23.278;2023-02-04T05:46:31;62904.22;;;3.20;100.00
21879;BME280;27908;42.708;23.278;2023-02-04T05:48:56;62909.72;;;3.18;100.00
21879;BME280;27908;42.708;23.278;2023-02-04T05:51:22;62878.38;;;3.07;100.00
21879;BME280;27908;42.708;23.278;2023-02-04T05:53:47;62828.44;;;3.00;100.00
21879;BME280;27908;42.708;23.278;2023-02-04T05:56:13;62899.28;;;2.93;100.00
21879;BME280;27908;42.708;23.278;2023-02-04T05:58:39;62860.34;;;2.80;100.00
21879;BME280;27908;42.708;23.278;2023-02-04T06:01:04;62851.41;;;2.88;100.00
21879;BME280;27908;42.708;23.278;2023-02-04T06:03:30;62832.28;;;2.87;100.00
21879;BME280;27908;42.708;23.278;2023-02-04T06:05:57;62857.38;;;2.84;100.00
21879;BME280;27908;42.708;23.278;2023-02-04T06:08:22;62908.41;;;2.97;100.00
21879;BME280;27908;42.708;23.278;2023-02-04T06:10:47;62899.84;;;2.96;100.00
21879;BME280;27908;42.708;23.278;2023-02-04T06:13:13;62858.72;;;3.05;100.00
21879;BME280;27908;42.708;23.278;2023-02-04T06:15:39;62882.47;;;3.14;100.00
21879;BME280;27908;42.708;23.278;2023-02-04T06:18:05;62897.69;;;3.21;100.00
21879;BME280;27908;42.708;23.278;2023-02-04T06:20:30;62896.34;;;3.32;100.00
21879;BME280;27908;42.708;23.278;2023-02-04T06:22:56;62898.97;;;3.39;100.00
21879;BME280;27908;42.708;23.278;2023-02-04T06:25:21;62907.00;;;3.37;100.00
21879;BME280;27908;42.708;23.278;2023-02-04T06:27:47;62883.94;;;3.44;100.00
21879;BME280;27908;42.708;23.278;2023-02-04T06:30:13;62908.75;;;3.53;100.00
21879;BME280;27908;42.708;23.278;2023-02-04T06:32:39;63030.09;;;3.52;100.00
21879;BME280;27908;42.708;23.278;2023-02-04T06:35:05;62907.69;;;3.50;100.00
21879;BME280;27908;42.708;23.278;2023-02-04T06:37:30;62927.00;;;3.61;100.00
21879;BME280;27908;42.708;23.278;2023-02-04T06:39:56;62923.00;;;3.62;100.00
21879;BME280;27908;42.708;23.278;2023-02-04T06:42:22;62961.97;;;3.76;100.00
21879;BME280;27908;42.708;23.278;2023-02-04T06:44:49;62956.94;;;3.76;98.36
21879;BME280;27908;42.708;23.278;2023-02-04T06:47:15;62941.84;;;3.76;97.01
21879;BME280;27908;42.708;23.278;2023-02-04T06:49:40;62966.31;;;3.97;97.07
21879;BME280;27908;42.708;23.278;2023-02-04T06:52:06;62993.56;;;3.99;94.72
21879;BME280;27908;42.708;23.278;2023-02-04T06:54:31;63000.91;;;4.18;95.12
21879;BME280;27908;42.708;23.278;2023-02-04T06:56:56;63006.59;;;4.26;92.57
21879;BME280;27908;42.708;23.278;2023-02-04T06:59:39;63013.19;;;4.30;92.61
21879;BME280;27908;42.708;23.278;2023-02-04T07:02:06;62987.69;;;4.44;91.91
21879;BME280;27908;42.708;23.278;2023-02-04T07:04:33;63016.03;;;4.52;90.59
21879;BME280;27908;42.708;23.278;2023-02-04T07:06:58;63034.59;;;4.46;91.52
21879;BME280;27908;42.708;23.278;2023-02-04T07:09:24;63009.50;;;4.56;91.17
21879;BME280;27908;42.708;23.278;2023-02-04T07:11:50;63032.25;;;4.58;90.62
21879;BME280;27908;42.708;23.278;2023-02-04T07:14:15;63044.06;;;4.72;89.76
21879;BME280;27908;42.708;23.278;2023-02-04T07:16:41;63050.69;;;4.78;89.61
21879;BME280;27908;42.708;23.278;2023-02-04T07:19:06;63022.50;;;4.83;89.45
21879;BME280;27908;42.708;23.278;2023-02-04T07:21:32;63071.44;;;4.81;89.13
21879;BME280;27908;42.708;23.278;2023-02-04T07:23:57;63128.16;;;4.94;90.04
21879;BME280;27908;42.708;23.278;2023-02-04T07:26:22;63100.03;;;5.04;88.65
21879;BME280;27908;42.708;23.278;2023-02-04T07:28:48;63096.41;;;4.98;90.93
21879;BME280;27908;42.708;23.278;2023-02-04T07:31:14;63067.69;;;5.02;89.34
21879;BME280;27908;42.708;23.278;2023-02-04T07:33:39;63085.19;;;4.90;88.50
21879;BME280;27908;42.708;23.278;2023-02-04T07:36:05;63113.69;;;5.05;88.41
21879;BME280;27908;42.708;23.278;2023-02-04T07:38:31;63087.44;;;5.06;86.02
21879;BME280;27908;42.708;23.278;2023-02-04T07:40:56;63095.59;;;5.12;86.77
21879;BME280;27908;42.708;23.278;2023-02-04T07:43:21;63101.44;;;5.32;87.03
21879;BME280;27908;42.708;23.278;2023-02-04T07:45:47;63098.31;;;5.24;86.80
21879;BME280;27908;42.708;23.278;2023-02-04T07:48:12;63113.28;;;5.12;85.19
21879;BME280;27908;42.708;23.278;2023-02-04T07:50:38;63105.91;;;5.27;87.00
21879;BME280;27908;42.708;23.278;2023-02-04T07:53:03;63128.28;;;5.36;85.81
21879;BME280;27908;42.708;23.278;2023-02-04T07:55:28;63097.31;;;5.26;85.51
21879;BME280;27908;42.708;23.278;2023-02-04T07:57:54;63092.97;;;5.04;86.51
21879;BME280;27908;42.708;23.278;2023-02-04T08:00:20;63110.94;;;5.24;86.19
21879;BME280;27908;42.708;23.278;2023-02-04T08:02:46;63095.09;;;5.11;87.10
21879;BME280;27908;42.708;23.278;2023-02-04T08:05:11;63079.03;;;5.18;87.06
21879;BME280;27908;42.708;23.278;2023-02-04T08:07:37;63121.97;;;5.20;87.63
21879;BME280;27908;42.708;23.278;2023-02-04T08:10:04;63094.66;;;5.16;87.11
21879;BME280;27908;42.708;23.278;2023-02-04T08:12:30;63121.50;;;5.22;87.04
21879;BME280;27908;42.708;23.278;2023-02-04T08:14:55;63126.50;;;5.17;87.67
21879;BME280;27908;42.708;23.278;2023-02-04T08:17:21;63072.28;;;5.06;87.21
21879;BME280;27908;42.708;23.278;2023-02-04T08:19:46;63062.03;;;4.94;88.35
21879;BME280;27908;42.708;23.278;2023-02-04T08:22:11;63071.53;;;4.89;89.16
21879;BME280;27908;42.708;23.278;2023-02-04T08:24:37;63029.59;;;4.85;90.04
21879;BME280;27908;42.708;23.278;2023-02-04T08:27:02;63050.81;;;4.86;90.04
21879;BME280;27908;42.708;23.278;2023-02-04T08:29:28;63098.72;;;4.83;91.87
21879;BME280;27908;42.708;23.278;2023-02-04T08:31:53;63072.63;;;4.94;90.85
21879;BME280;27908;42.708;23.278;2023-02-04T08:34:19;63087.25;;;4.92;91.51
21879;BME280;27908;42.708;23.278;2023-02-04T08:36:44;63041.69;;;4.84;92.00
21879;BME280;27908;42.708;23.278;2023-02-04T08:39:10;63088.84;;;4.98;92.39
21879;BME280;27908;42.708;23.278;2023-02-04T08:41:36;63071.13;;;4.93;88.63
21879;BME280;27908;42.708;23.278;2023-02-04T08:44:02;63078.25;;;4.97;90.12
21879;BME280;27908;42.708;23.278;2023-02-04T08:46:28;63078.25;;;4.97;91.08
21879;BME280;27908;42.708;23.278;2023-02-04T08:48:53;63035.56;;;4.78;93.62
21879;BME280;27908;42.708;23.278;2023-02-04T08:51:18;63073.53;;;4.52;96.35
21879;BME280;27908;42.708;23.278;2023-02-04T08:53:44;62962.31;;;4.34;98.45
21879;BME280;27908;42.708;23.278;2023-02-04T08:56:10;63027.28;;;4.29;99.90
21879;BME280;27908;42.708;23.278;2023-02-04T08:58:40;62977.44;;;4.34;100.00
21879;BME280;27908;42.708;23.278;2023-02-04T09:01:06;63015.75;;;4.32;100.00
21879;BME280;27908;42.708;23.278;2023-02-04T09:03:31;62988.00;;;4.32;100.00
21879;BME280;27908;42.708;23.278;2023-02-04T09:05:57;63047.66;;;4.41;100.00
21879;BME280;27908;42.708;23.278;2023-02-04T09:08:22;63023.63;;;4.55;100.00
21879;BME280;27908;42.708;23.278;2023-02-04T09:10:47;63050.50;;;4.63;98.26
21879;BME280;27908;42.708;23.278;2023-02-04T09:13:13;63046.00;;;4.66;96.95
21879;BME280;27908;42.708;23.278;2023-02-04T09:15:38;63058.31;;;4.81;95.85
21879;BME280;27908;42.708;23.278;2023-02-04T09:18:04;63055.28;;;4.80;93.68
21879;BME280;27908;42.708;23.278;2023-02-04T09:20:38;63083.22;;;4.93;92.32
21879;BME280;27908;42.708;23.278;2023-02-04T09:23:04;63080.16;;;4.90;90.98
21879;BME280;27908;42.708;23.278;2023-02-04T09:25:33;63078.34;;;5.05;90.02
21879;BME280;27908;42.708;23.278;2023-02-04T09:27:58;63066.25;;;5.08;90.02
21879;BME280;27908;42.708;23.278;2023-02-04T09:30:24;63110.09;;;5.01;90.60
21879;BME280;27908;42.708;23.278;2023-02-04T09:32:49;63080.44;;;4.75;95.07
21879;BME280;27908;42.708;23.278;2023-02-04T09:35:15;63047.50;;;4.65;99.06
21879;BME280;27908;42.708;23.278;2023-02-04T09:37:41;63052.00;;;4.62;100.00
21879;BME280;27908;42.708;23.278;2023-02-04T09:40:06;63025.16;;;4.56;100.00
21879;BME280;27908;42.708;23.278;2023-02-04T09:42:32;63023.50;;;4.45;100.00
21879;BME280;27908;42.708;23.278;2023-02-04T09:44:57;63006.16;;;4.33;100.00
21879;BME280;27908;42.708;23.278;2023-02-04T09:47:25;62990.09;;;4.37;100.00
21879;BME280;27908;42.708;23.278;2023-02-04T09:49:51;63029.88;;;4.34;100.00
21879;BME280;27908;42.708;23.278;2023-02-04T09:52:17;63022.91;;;4.39;100.00
21879;BME280;27908;42.708;23.278;2023-02-04T09:54:43;62975.47;;;4.37;100.00
21879;BME280;27908;42.708;23.278;2023-02-04T09:57:27;63016.75;;;4.33;100.00
21879;BME280;27908;42.708;23.278;2023-02-04T09:59:54;63016.25;;;4.33;100.00
21879;BME280;27908;42.708;23.278;2023-02-04T10:02:25;63013.22;;;4.32;100.00
21879;BME280;27908;42.708;23.278;2023-02-04T10:04:53;63028.03;;;4.10;100.00
21879;BME280;27908;42.708;23.278;2023-02-04T10:07:21;63021.66;;;4.23;100.00
21879;BME280;27908;42.708;23.278;2023-02-04T10:09:50;62982.78;;;4.20;100.00
21879;BME280;27908;42.708;23.278;2023-02-04T10:12:17;62993.53;;;4.30;100.00
21879;BME280;27908;42.708;23.278;2023-02-04T10:14:43;63023.34;;;4.35;100.00
21879;BME280;27908;42.708;23.278;2023-02-04T10:17:09;62991.16;;;4.40;100.00
21879;BME280;27908;42.708;23.278;2023-02-04T10:19:35;63016.31;;;4.38;100.00
21879;BME280;27908;42.708;23.278;2023-02-04T10:22:02;63059.34;;;4.48;100.00
21879;BME280;27908;42.708;23.278;2023-02-04T10:24:28;63043.72;;;4.50;100.00
21879;BME280;27908;42.708;23.278;2023-02-04T10:27:06;63019.03;;;4.50;100.00
21879;BME280;27908;42.708;23.278;2023-02-04T10:29:32;63056.03;;;4.64;100.00
21879;BME280;27908;42.708;23.278;2023-02-04T10:31:57;63011.56;;;4.58;100.00
21879;BME280;27908;42.708;23.278;2023-02-04T10:34:32;63035.97;;;4.37;100.00
21879;BME280;27908;42.708;23.278;2023-02-04T10:36:58;62975.41;;;3.98;100.00
21879;BME280;27908;42.708;23.278;2023-02-04T10:41:50;62923.28;;;3.82;100.00
21879;BME280;27908;42.708;23.278;2023-02-04T10:44:19;62937.88;;;3.82;100.00
21879;BME280;27908;42.708;23.278;2023-02-04T10:46:45;62956.91;;;3.73;100.00
21879;BME280;27908;42.708;23.278;2023-02-04T10:49:23;62940.34;;;3.79;100.00
21879;BME280;27908;42.708;23.278;2023-02-04T10:51:50;62961.13;;;3.87;100.00
21879;BME280;27908;42.708;23.278;2023-02-04T10:54:19;62949.59;;;3.90;100.00
21879;BME280;27908;42.708;23.278;2023-02-04T10:57:10;62940.44;;;3.84;100.00
21879;BME280;27908;42.708;23.278;2023-02-04T10:59:40;62977.34;;;3.93;100.00
21879;BME280;27908;42.708;23.278;2023-02-04T11:04:48;62945.25;;;4.03;100.00
21879;BME280;27908;42.708;23.278;2023-02-04T11:07:13;63010.72;;;4.01;100.00
21879;BME280;27908;42.708;23.278;2023-02-04T11:09:42;62981.47;;;3.99;100.00
21879;BME280;27908;42.708;23.278;2023-02-04T11:12:21;63016.38;;;4.06;100.00
21879;BME280;27908;42.708;23.278;2023-02-04T11:14:54;62972.00;;;4.07;100.00
21879;BME280;27908;42.708;23.278;2023-02-04T11:17:20;62983.72;;;4.14;100.00
21879;BME280;27908;42.708;23.278;2023-02-04T11:19:46;62997.41;;;4.20;100.00
21879;BME280;27908;42.708;23.278;2023-02-04T11:22:23;62995.69;;;4.06;100.00
21879;BME280;27908;42.708;23.278;2023-02-04T11:24:59;62991.69;;;4.09;100.00
21879;BME280;27908;42.708;23.278;2023-02-04T11:27:37;62998.44;;;4.21;100.00
21879;BME280;27908;42.708;23.278;2023-02-04T11:30:05;62991.97;;;4.26;100.00
21879;BME280;27908;42.708;23.278;2023-02-04T11:32:34;62984.38;;;4.24;100.00
21879;BME280;27908;42.708;23.278;2023-02-04T11:35:25;62999.88;;;4.17;100.00
21879;BME280;27908;42.708;23.278;2023-02-04T11:37:53;62991.34;;;4.19;100.00
21879;BME280;27908;42.708;23.278;2023-02-04T11:40:27;63025.47;;;4.08;100.00
21879;BME280;27908;42.708;23.278;2023-02-04T11:43:11;62985.31;;;4.20;100.00
21879;BME280;27908;42.708;23.278;2023-02-04T11:45:38;63015.25;;;4.32;100.00
21879;BME280;27908;42.708;23.278;2023-02-04T11:48:13;62984.38;;;4.24;100.00
21879;BME280;27908;42.708;23.278;2023-02-04T11:50:39;62997.34;;;4.15;100.00
21879;BME280;27908;42.708;23.278;2023-02-04T11:53:09;63011.16;;;4.28;100.00
21879;BME280;27908;42.708;23.278;2023-02-04T11:55:41;63001.72;;;4.38;100.00
21879;BME280;27908;42.708;23.278;2023-02-04T11:58:13;63004.63;;;4.31;100.00
21879;BME280;27908;42.708;23.278;2023-02-04T12:00:39;63003.72;;;4.38;100.00
21879;BME280;27908;42.708;23.278;2023-02-04T12:03:20;63009.31;;;4.41;100.00
21879;BME280;27908;42.708;23.278;2023-02-04T12:05:46;63017.78;;;4.34;100.00
21879;BME280;27908;42.708;23.278;2023-02-04T12:11:05;62970.13;;;4.15;100.00
21879;BME280;27908;42.708;23.278;2023-02-04T12:13:32;62979.19;;;4.14;100.00
21879;BME280;27908;42.708;23.278;2023-02-04T12:16:03;62981.75;;;4.19;100.00
21879;BME280;27908;42.708;23.278;2023-02-04T12:18:30;62993.69;;;4.06;100.00
21879;BME280;27908;42.708;23.278;2023-02-04T12:20:56;62995.66;;;4.03;100.00
21879;BME280;27908;42.708;23.278;2023-02-04T12:23:23;63130.97;;;3.88;100.00
21879;BME280;27908;42.708;23.278;2023-02-04T12:25:49;63016.41;;;4.09;100.00
21879;BME280;27908;42.708;23.278;2023-02-04T12:28:15;62989.16;;;4.07;100.00
21879;BME280;27908;42.708;23.278;2023-02-04T12:30:40;62999.97;;;4.22;100.00
21879;BME280;27908;42.708;23.278;2023-02-04T12:33:06;63026.78;;;4.28;100.00
21879;BME280;27908;42.708;23.278;2023-02-04T12:35:32;62997.78;;;4.10;100.00
21879;BME280;27908;42.708;23.278;2023-02-04T12:37:58;62982.75;;;4.18;100.00
21879;BME280;27908;42.708;23.278;2023-02-04T12:40:23;62987.84;;;4.20;100.00
21879;BME280;27908;42.708;23.278;2023-02-04T12:42:48;62994.78;;;4.12;100.00
21879;BME280;27908;42.708;23.278;2023-02-04T12:45:15;62960.00;;;4.13;100.00
21879;BME280;27908;42.708;23.278;2023-02-04T12:47:41;63038.59;;;4.11;100.00
21879;BME280;27908;42.708;23.278;2023-02-04T12:50:08;63019.19;;;4.26;100.00
21879;BME280;27908;42.708;23.278;2023-02-04T12:52:34;63049.94;;;4.26;100.00
21879;BME280;27908;42.708;23.278;2023-02-04T12:55:02;63027.81;;;4.29;100.00
21879;BME280;27908;42.708;23.278;2023-02-04T12:57:29;63027.03;;;4.46;100.00